Time;durP1;ratioP1;P1;durP2;ratioP2;P2;SDS_P1;SDS_P2;PMS_P1;PMS_P2;Temp;Humidity;BMP_temperature;BMP_pressure;BME280_temperature;BME280_humidity;BME280_pressure;Samples;Min_cycle;Max_cycle;Signal;HPM_P1;HPM_P2
2021/11/06 00:00:23;;;;;;;85.20;40.70;;;;;;;17.24;60.03;100930.77;117401;1185;23465;-69
2021/11/06 00:02:53;;;;;;;87.70;39.80;;;;;;;17.24;59.99;100935.22;117384;1186;23407;-64
2021/11/06 00:05:21;;;;;;;80.90;37.90;;;;;;;17.24;59.88;100941.42;117314;1183;22535;-69
2021/11/06 00:07:49;;;;;;;71.20;34.60;;;;;;;17.25;59.94;100941.58;117418;1182;23509;-64
2021/11/06 00:10:17;;;;;;;70.90;34.00;;;;;;;17.24;59.94;100949.59;117408;1186;23563;-69
2021/11/06 00:12:48;;;;;;;68.90;34.50;;;;;;;17.21;59.99;100944.71;117474;1182;23437;-64
2021/11/06 00:15:16;;;;;;;73.60;35.20;;;;;;;17.18;59.89;100945.52;117453;1182;23572;-69
2021/11/06 00:17:46;;;;;;;74.40;35.30;;;;;;;17.16;59.93;100950.73;117659;1184;24177;-64
2021/11/06 00:20:15;;;;;;;84.70;38.90;;;;;;;17.14;60.00;100956.29;117491;1183;21923;-64
2021/11/06 00:22:43;;;;;;;78.40;39.50;;;;;;;17.12;60.00;100957.59;117432;1182;23451;-64
2021/11/06 00:25:12;;;;;;;88.30;39.90;;;;;;;17.11;60.12;100960.64;117581;1183;21860;-69
2021/11/06 00:27:40;;;;;;;78.40;39.60;;;;;;;17.11;60.08;100963.30;117395;1186;24145;-63
2021/11/06 00:30:09;;;;;;;77.90;38.70;;;;;;;17.11;60.10;100962.58;117515;1185;23435;-70
2021/11/06 00:32:38;;;;;;;82.50;41.30;;;;;;;17.12;60.05;100963.79;117545;1184;21854;-69
2021/11/06 00:35:08;;;;;;;80.50;41.80;;;;;;;17.12;60.01;100965.75;117484;1186;21841;-64
2021/11/06 00:37:37;;;;;;;63.00;35.60;;;;;;;17.12;60.05;100972.48;117576;1184;21862;-64
2021/11/06 00:40:06;;;;;;;83.40;41.80;;;;;;;17.12;60.10;100974.41;117520;1182;23472;-69
2021/11/06 00:42:35;;;;;;;81.00;42.40;;;;;;;17.12;60.03;100971.40;117531;1186;22806;-69
2021/11/06 00:45:04;;;;;;;78.80;40.50;;;;;;;17.11;60.12;100967.00;117496;1182;23563;-64
2021/11/06 00:47:33;;;;;;;76.40;38.70;;;;;;;17.13;59.99;100969.80;117397;1185;21895;-64
2021/11/06 00:50:01;;;;;;;69.50;38.30;;;;;;;17.13;59.96;100964.13;117437;1183;21917;-64
2021/11/06 00:52:31;;;;;;;79.00;39.90;;;;;;;17.14;60.06;100959.46;117310;1186;23575;-69
2021/11/06 00:54:59;;;;;;;73.20;38.80;;;;;;;17.14;60.03;100957.88;117413;1183;24165;-64
2021/11/06 00:57:29;;;;;;;73.10;38.20;;;;;;;17.14;59.97;100950.98;117446;1185;23439;-70
2021/11/06 00:59:57;;;;;;;68.10;35.90;;;;;;;17.14;59.97;100942.27;117479;1184;21861;-70
2021/11/06 01:02:25;;;;;;;82.90;38.20;;;;;;;17.14;60.08;100940.15;117494;1183;21849;-64
2021/11/06 01:04:54;;;;;;;75.90;36.90;;;;;;;17.12;59.97;100941.45;117515;1179;23574;-69
2021/11/06 01:07:23;;;;;;;76.70;37.60;;;;;;;17.10;59.99;100949.66;117565;1183;21875;-70
2021/11/06 01:09:51;;;;;;;64.40;35.90;;;;;;;17.11;59.99;100960.64;117511;1183;21845;-64
2021/11/06 01:12:20;;;;;;;76.20;37.60;;;;;;;17.09;60.04;100966.88;117454;1186;23897;-65
2021/11/06 01:14:49;;;;;;;77.50;36.80;;;;;;;17.10;59.98;100971.65;117489;1185;21864;-69
2021/11/06 01:17:17;;;;;;;68.60;36.60;;;;;;;17.10;60.05;100977.50;117559;1185;23475;-64
2021/11/06 01:19:45;;;;;;;70.30;37.20;;;;;;;17.10;60.09;100985.64;117447;1182;23529;-70
2021/11/06 01:22:14;;;;;;;70.80;36.60;;;;;;;17.08;59.99;100987.65;117366;1182;23465;-64
2021/11/06 01:24:42;;;;;;;70.10;35.20;;;;;;;17.07;60.12;100991.23;117306;1185;21853;-64
2021/11/06 01:27:11;;;;;;;66.30;32.10;;;;;;;17.07;60.00;100990.89;117119;1188;21862;-71
2021/11/06 01:29:39;;;;;;;61.40;32.90;;;;;;;17.04;60.02;100982.81;117316;1185;23592;-71
2021/11/06 01:32:09;;;;;;;61.50;30.40;;;;;;;17.01;60.01;100979.52;117391;1185;24155;-64
2021/11/06 01:34:39;;;;;;;59.60;31.90;;;;;;;16.99;60.06;100974.12;117362;1182;22945;-70
2021/11/06 01:37:07;;;;;;;64.00;31.30;;;;;;;16.97;60.01;100975.59;117543;1179;23448;-71
2021/11/06 01:39:36;;;;;;;61.30;29.90;;;;;;;16.96;60.11;100981.80;117469;1184;22699;-70
2021/11/06 01:42:05;;;;;;;61.40;29.50;;;;;;;16.97;60.07;100983.55;117403;1180;22059;-64
2021/11/06 01:44:34;;;;;;;57.70;29.30;;;;;;;16.99;60.17;100980.84;117427;1184;22929;-64
2021/11/06 01:47:03;;;;;;;52.40;28.70;;;;;;;16.99;60.19;100982.80;117403;1176;21917;-64
2021/11/06 01:49:32;;;;;;;56.40;28.90;;;;;;;16.99;60.08;100989.38;117420;1182;23622;-70
2021/11/06 01:52:00;;;;;;;61.10;29.20;;;;;;;16.97;60.05;100987.98;117394;1183;23669;-71
2021/11/06 01:54:30;;;;;;;53.10;27.90;;;;;;;16.96;59.97;100990.48;117439;1183;24151;-71
2021/11/06 01:56:59;;;;;;;54.70;29.20;;;;;;;16.97;59.94;100995.63;117366;1182;23446;-64
2021/11/06 01:59:27;;;;;;;61.60;29.80;;;;;;;16.98;59.97;100997.02;117416;1186;23465;-70
2021/11/06 02:01:56;;;;;;;51.20;26.90;;;;;;;16.98;59.98;101003.73;117426;1182;22916;-70
2021/11/06 02:04:28;;;;;;;55.30;28.30;;;;;;;17.01;59.97;101007.89;117487;1187;21917;-64
2021/11/06 02:06:56;;;;;;;52.20;28.30;;;;;;;17.00;59.98;101003.14;117431;1176;21916;-70
2021/11/06 02:09:26;;;;;;;49.10;26.60;;;;;;;17.01;60.05;101004.37;117508;1181;23622;-64
2021/11/06 02:11:55;;;;;;;;;;;;;;;17.00;60.05;101006.89;117399;1179;23442;-64
2021/11/06 02:14:24;;;;;;;52.40;26.90;;;;;;;17.06;59.80;101012.90;117552;1182;23567;-64
2021/11/06 02:16:53;;;;;;;54.20;30.20;;;;;;;17.14;59.70;101019.75;117584;1182;21960;-69
2021/11/06 02:19:28;;;;;;;42.80;24.40;;;;;;;17.16;59.64;101026.25;117522;1185;24221;-70
2021/11/06 02:21:59;;;;;;;57.90;28.80;;;;;;;17.17;59.70;101023.02;117376;1184;21855;-64
2021/11/06 02:24:27;;;;;;;50.30;28.60;;;;;;;17.19;59.69;101026.52;117529;1186;23454;-69
2021/11/06 02:26:56;;;;;;;52.30;27.40;;;;;;;17.18;59.68;101020.52;117460;1182;21864;-69
2021/11/06 02:29:24;;;;;;;47.90;27.00;;;;;;;17.19;59.59;101016.42;117454;1183;21860;-70
2021/11/06 02:31:56;;;;;;;50.60;28.10;;;;;;;17.19;59.59;101015.01;117413;1176;21845;-65
2021/11/06 02:34:26;;;;;;;55.40;29.40;;;;;;;17.20;59.67;101021.88;117396;1176;23519;-70
2021/11/06 02:36:54;;;;;;;54.80;28.70;;;;;;;17.21;59.63;101023.09;117368;1183;23441;-69
2021/11/06 02:39:23;;;;;;;53.10;28.30;;;;;;;17.21;59.63;101024.89;117428;1183;23519;-64
2021/11/06 02:42:00;;;;;;;49.00;26.80;;;;;;;17.21;59.58;101022.02;117341;1184;22021;-64
2021/11/06 02:44:29;;;;;;;46.60;27.50;;;;;;;17.20;59.65;101020.83;117419;1182;23446;-64
2021/11/06 02:46:57;;;;;;;51.90;28.40;;;;;;;17.21;59.58;101030.90;117462;1182;23566;-70
2021/11/06 02:49:26;;;;;;;49.00;26.80;;;;;;;17.23;59.62;101036.69;117422;1185;23553;-71
2021/11/06 02:51:55;;;;;;;54.80;27.10;;;;;;;17.23;59.59;101045.38;117449;1183;23617;-64
2021/11/06 02:54:24;;;;;;;48.20;27.80;;;;;;;17.24;59.65;101046.76;117395;1183;24158;-70
2021/11/06 02:56:52;;;;;;;48.80;26.90;;;;;;;17.26;59.62;101045.64;117418;1182;23452;-69
2021/11/06 02:59:23;;;;;;;47.90;26.00;;;;;;;17.28;59.62;101037.08;117433;1183;22914;-65
2021/11/06 03:01:52;;;;;;;46.50;26.70;;;;;;;17.30;59.61;101023.73;117384;1185;21849;-70
2021/11/06 03:04:22;;;;;;;44.10;25.50;;;;;;;17.31;59.51;101017.98;117400;1185;23466;-70
2021/11/06 03:06:51;;;;;;;50.80;26.30;;;;;;;17.33;59.55;101031.08;117525;1185;23438;-67
2021/11/06 03:09:20;;;;;;;43.90;26.10;;;;;;;17.32;59.59;101040.85;117478;1182;24158;-64
2021/11/06 03:12:03;;;;;;;45.00;26.50;;;;;;;17.32;59.57;101041.02;117426;1185;23541;-71
2021/11/06 03:14:34;;;;;;;50.80;26.90;;;;;;;17.33;59.58;101046.52;117494;1182;21862;-64
2021/11/06 03:17:02;;;;;;;50.90;26.30;;;;;;;17.35;59.55;101056.75;117519;1185;21860;-70
2021/11/06 03:19:31;;;;;;;50.00;25.90;;;;;;;17.34;59.54;101053.04;117510;1182;21852;-64
2021/11/06 03:22:00;;;;;;;45.70;26.00;;;;;;;17.37;59.51;101053.65;117424;1186;21830;-70
2021/11/06 03:24:28;;;;;;;44.90;25.60;;;;;;;17.41;59.43;101055.52;117584;1182;21924;-70
2021/11/06 03:26:57;;;;;;;45.10;25.20;;;;;;;17.40;59.51;101055.55;117356;1182;24152;-64
2021/11/06 03:29:25;;;;;;;52.60;26.90;;;;;;;17.35;59.52;101061.70;117400;1185;21845;-64
2021/11/06 03:31:59;;;;;;;46.30;26.60;;;;;;;17.33;59.64;101059.80;117349;1185;21865;-65
2021/11/06 03:34:28;;;;;;;45.90;26.40;;;;;;;17.33;59.71;101061.23;117493;1186;21855;-64
2021/11/06 03:36:56;;;;;;;52.50;26.70;;;;;;;17.36;59.72;101067.35;117359;1182;23563;-64
2021/11/06 03:39:24;;;;;;;50.60;27.20;;;;;;;17.36;59.59;101068.05;117357;1185;22867;-69
2021/11/06 03:41:53;;;;;;;43.50;25.80;;;;;;;17.37;59.69;101065.20;117336;1185;23635;-64
2021/11/06 03:44:21;;;;;;;46.10;25.30;;;;;;;17.38;59.66;101064.63;117442;1183;23464;-64
2021/11/06 03:46:50;;;;;;;53.60;27.30;;;;;;;17.38;59.51;101074.02;117389;1176;23469;-70
2021/11/06 03:49:19;;;;;;;56.80;28.20;;;;;;;17.33;59.73;101077.91;117423;1185;24159;-64
2021/11/06 03:51:47;;;;;;;53.30;27.20;;;;;;;17.38;59.67;101085.02;117422;1183;23438;-63
2021/11/06 03:54:16;;;;;;;48.80;26.90;;;;;;;17.42;59.60;101084.40;117402;1182;23542;-70
2021/11/06 03:56:45;;;;;;;49.30;26.10;;;;;;;17.43;59.51;101079.92;117424;1183;22969;-68
2021/11/06 03:59:13;;;;;;;46.90;25.20;;;;;;;17.45;59.50;101085.39;117376;1183;22126;-65
2021/11/06 04:01:42;;;;;;;50.80;26.30;;;;;;;17.44;59.54;101093.00;117377;1183;24159;-64
2021/11/06 04:04:10;;;;;;;50.40;25.90;;;;;;;17.44;59.59;101099.59;117391;1186;24175;-65
2021/11/06 04:06:38;;;;;;;49.90;23.70;;;;;;;17.41;59.56;101102.52;117517;1185;21855;-65
2021/11/06 04:09:07;;;;;;;46.20;24.80;;;;;;;17.38;59.59;101103.84;117435;1183;22796;-69
2021/11/06 04:11:35;;;;;;;49.60;26.60;;;;;;;17.39;59.60;101098.29;117540;1183;22941;-65
2021/11/06 04:14:03;;;;;;;42.20;23.30;;;;;;;17.42;59.59;101094.14;117536;1176;21842;-69
2021/11/06 04:16:32;;;;;;;45.10;25.40;;;;;;;17.44;59.62;101100.30;117542;1182;23438;-69
2021/11/06 04:19:00;;;;;;;48.10;23.90;;;;;;;17.45;59.71;101108.08;117523;1185;21895;-69
2021/11/06 04:21:32;;;;;;;44.20;24.60;;;;;;;17.45;59.70;101104.69;117492;1182;23471;-69
2021/11/06 04:24:00;;;;;;;55.80;25.70;;;;;;;17.47;59.67;101109.61;117580;1185;21854;-65
2021/11/06 04:26:29;;;;;;;54.90;26.70;;;;;;;17.48;59.64;101118.27;117386;1185;23544;-69
2021/11/06 04:28:57;;;;;;;58.20;29.00;;;;;;;17.49;59.67;101130.84;117475;1182;21856;-70
2021/11/06 04:31:25;;;;;;;53.10;27.00;;;;;;;17.48;59.66;101138.65;117363;1182;23458;-69
2021/11/06 04:33:54;;;;;;;56.60;26.90;;;;;;;17.48;59.54;101136.19;117387;1184;22648;-65
2021/11/06 04:36:22;;;;;;;55.80;28.70;;;;;;;17.48;59.56;101131.21;117418;1182;23472;-70
2021/11/06 04:38:50;;;;;;;55.60;29.30;;;;;;;17.49;59.61;101130.46;117377;1182;22803;-65
2021/11/06 04:41:18;;;;;;;55.30;27.50;;;;;;;17.50;59.66;101135.05;117444;1185;23526;-69
2021/11/06 04:43:47;;;;;;;53.50;28.60;;;;;;;17.50;59.65;101135.95;117423;1183;23531;-65
2021/11/06 04:46:15;;;;;;;57.00;27.60;;;;;;;17.48;59.70;101140.42;117473;1182;22608;-65
2021/11/06 04:48:43;;;;;;;49.40;26.90;;;;;;;17.50;59.62;101151.39;117379;1183;21918;-65
2021/11/06 04:51:11;;;;;;;54.00;31.00;;;;;;;17.51;59.73;101154.71;117348;1182;23462;-65
2021/11/06 04:53:40;;;;;;;51.30;28.70;;;;;;;17.53;59.54;101150.41;117368;1182;23548;-65
2021/11/06 04:56:08;;;;;;;54.20;29.00;;;;;;;17.55;59.59;101152.33;117418;1182;24207;-65
2021/11/06 04:58:36;;;;;;;54.50;30.20;;;;;;;17.56;59.63;101152.64;117405;1182;21862;-65
2021/11/06 05:01:05;;;;;;;53.10;31.30;;;;;;;17.57;59.56;101160.96;117419;1184;24142;-65
2021/11/06 05:03:33;;;;;;;57.10;32.70;;;;;;;17.56;59.57;101159.38;117504;1182;23435;-65
2021/11/06 05:06:01;;;;;;;52.80;30.20;;;;;;;17.58;59.69;101161.29;117270;1183;22624;-70
2021/11/06 05:08:30;;;;;;;55.50;31.40;;;;;;;17.59;59.62;101167.81;117395;1176;23461;-69
2021/11/06 05:10:58;;;;;;;57.40;30.30;;;;;;;17.60;59.62;101166.02;117388;1183;22648;-69
2021/11/06 05:13:26;;;;;;;52.10;30.00;;;;;;;17.60;59.63;101165.30;117466;1186;23426;-70
2021/11/06 05:15:58;;;;;;;52.50;31.40;;;;;;;17.60;59.76;101171.69;117452;1182;23550;-65
2021/11/06 05:18:26;;;;;;;49.20;29.70;;;;;;;17.63;59.64;101167.52;118069;1182;22491;-65
2021/11/06 05:20:55;;;;;;;50.40;30.20;;;;;;;17.63;59.61;101169.48;117466;1183;21854;-69
2021/11/06 05:23:23;;;;;;;56.40;30.10;;;;;;;17.62;59.57;101173.41;117517;1180;23458;-71
2021/11/06 05:25:53;;;;;;;52.70;29.10;;;;;;;17.65;59.65;101185.02;117368;1179;22624;-70
2021/11/06 05:28:22;;;;;;;45.20;27.60;;;;;;;17.70;59.59;101185.95;117321;1183;21858;-63
2021/11/06 05:30:50;;;;;;;50.20;28.70;;;;;;;17.75;59.62;101196.79;117359;1180;22962;-69
2021/11/06 05:33:19;;;;;;;51.00;29.40;;;;;;;17.77;59.69;101205.98;117366;1176;23491;-70
2021/11/06 05:35:47;;;;;;;55.70;28.80;;;;;;;17.78;59.60;101212.17;117416;1185;24177;-69
2021/11/06 05:38:15;;;;;;;44.00;28.70;;;;;;;17.77;59.71;101211.65;117385;1183;23456;-69
2021/11/06 05:40:44;;;;;;;48.50;29.00;;;;;;;17.77;59.63;101210.41;117496;1185;21865;-71
2021/11/06 05:43:13;;;;;;;45.60;28.00;;;;;;;17.78;59.84;101210.74;117386;1182;23429;-69
2021/11/06 05:45:41;;;;;;;50.90;30.10;;;;;;;17.79;59.77;101212.67;117436;1186;23442;-70
2021/11/06 05:48:09;;;;;;;49.30;28.70;;;;;;;17.76;59.97;101218.98;117426;1182;24159;-70
2021/11/06 05:50:37;;;;;;;46.50;28.10;;;;;;;17.83;59.84;101221.44;117411;1185;21854;-67
2021/11/06 05:53:06;;;;;;;46.60;28.20;;;;;;;17.87;59.78;101227.16;117635;1184;22055;-64
2021/11/06 05:55:35;;;;;;;49.20;27.60;;;;;;;17.89;59.76;101230.30;117555;1185;23318;-70
2021/11/06 05:58:03;;;;;;;43.10;27.00;;;;;;;17.90;59.82;101230.81;117396;1186;22354;-71
2021/11/06 06:00:33;;;;;;;48.40;27.70;;;;;;;17.92;59.80;101232.70;117599;1176;23446;-64
2021/11/06 06:03:01;;;;;;;44.30;27.00;;;;;;;17.92;59.82;101239.44;117603;1184;21851;-71
2021/11/06 06:05:29;;;;;;;41.30;27.70;;;;;;;17.94;59.83;101237.79;117550;1179;24608;-71
2021/11/06 06:07:58;;;;;;;48.50;28.20;;;;;;;17.92;59.85;101238.91;117563;1183;22685;-64
2021/11/06 06:10:27;;;;;;;47.40;27.20;;;;;;;17.92;59.84;101239.64;117518;1182;23439;-64
2021/11/06 06:12:56;;;;;;;45.40;27.80;;;;;;;17.92;59.91;101241.92;117540;1186;23438;-71
2021/11/06 06:15:42;;;;;;;44.40;26.70;;;;;;;17.93;59.89;101250.08;117438;1184;23532;-71
2021/11/06 06:18:10;;;;;;;43.40;27.40;;;;;;;17.95;59.85;101261.02;117534;1182;23446;-70
2021/11/06 06:20:39;;;;;;;47.30;27.00;;;;;;;17.96;59.85;101270.20;117643;1184;23467;-71
2021/11/06 06:23:07;;;;;;;45.10;28.80;;;;;;;17.98;59.89;101282.08;117292;1183;21850;-64
2021/11/06 06:25:35;;;;;;;48.10;29.20;;;;;;;18.00;59.86;101286.48;117491;1183;23462;-71
2021/11/06 06:28:05;;;;;;;46.00;27.60;;;;;;;18.00;59.99;101288.96;117361;1185;22307;-71
2021/11/06 06:30:36;;;;;;;47.20;29.20;;;;;;;17.99;59.88;101292.55;117537;1183;23566;-71
2021/11/06 06:33:05;;;;;;;44.20;28.40;;;;;;;17.99;59.88;101300.02;117523;1182;23506;-64
2021/11/06 06:35:33;;;;;;;42.40;27.60;;;;;;;17.95;59.98;101312.86;117525;1184;21851;-64
2021/11/06 06:38:02;;;;;;;48.00;30.10;;;;;;;17.94;59.98;101314.84;117429;1176;21860;-64
2021/11/06 06:40:30;;;;;;;48.60;30.10;;;;;;;17.94;59.87;101316.96;117545;1185;23471;-72
2021/11/06 06:42:59;;;;;;;45.80;29.70;;;;;;;17.94;59.89;101314.66;117474;1185;24152;-63
2021/11/06 06:45:29;;;;;;;41.70;29.00;;;;;;;17.95;59.92;101314.82;117399;1182;23541;-64
2021/11/06 06:47:57;;;;;;;46.10;29.70;;;;;;;17.94;59.85;101323.20;117361;1183;21863;-63
2021/11/06 06:50:27;;;;;;;39.90;29.10;;;;;;;17.89;59.79;101318.02;117558;1176;23452;-65
2021/11/06 06:52:59;;;;;;;38.30;26.30;;;;;;;17.74;59.55;101325.17;117383;1182;21854;-65
2021/11/06 06:55:27;;;;;;;32.40;25.00;;;;;;;17.53;59.43;101326.41;117453;1181;22639;-65
2021/11/06 06:57:56;;;;;;;33.60;25.50;;;;;;;17.34;59.37;101324.44;117444;1185;21915;-65
2021/11/06 07:00:24;;;;;;;37.80;25.10;;;;;;;17.19;59.46;101328.19;118126;1183;21867;-75
2021/11/06 07:02:52;;;;;;;28.40;22.50;;;;;;;17.09;59.62;101335.67;117446;1183;22644;-75
2021/11/06 07:05:20;;;;;;;36.30;25.90;;;;;;;17.04;59.65;101340.94;117395;1182;22918;-74
2021/11/06 07:07:49;;;;;;;35.40;25.80;;;;;;;16.98;59.72;101340.90;117460;1185;23439;-75
2021/11/06 07:10:17;;;;;;;36.60;27.00;;;;;;;16.93;59.65;101342.77;117554;1176;23542;-74
2021/11/06 07:12:46;;;;;;;36.00;26.10;;;;;;;16.91;59.77;101341.74;117414;1182;22084;-75
2021/11/06 07:15:34;;;;;;;34.80;24.40;;;;;;;16.91;59.76;101350.98;117507;1184;21882;-75
2021/11/06 07:18:03;;;;;;;36.30;26.60;;;;;;;16.93;59.80;101349.67;117588;1176;21874;-65
2021/11/06 07:20:32;;;;;;;44.40;29.10;;;;;;;16.97;59.86;101354.41;117413;1180;22915;-73
2021/11/06 07:23:01;;;;;;;38.80;26.30;;;;;;;16.96;59.78;101351.94;117477;1182;23111;-65
2021/11/06 07:25:30;;;;;;;34.20;24.30;;;;;;;16.93;59.88;101351.46;117420;1185;23469;-73
2021/11/06 07:27:59;;;;;;;35.00;25.20;;;;;;;16.91;59.97;101356.83;117457;1183;23442;-67
2021/11/06 07:30:28;;;;;;;34.00;22.00;;;;;;;16.88;59.92;101363.27;117430;1179;21879;-72
2021/11/06 07:32:56;;;;;;;32.30;21.80;;;;;;;16.87;59.81;101368.95;117462;1186;23677;-65
2021/11/06 07:35:25;;;;;;;28.00;20.00;;;;;;;16.82;59.82;101380.41;117313;1185;21853;-66
2021/11/06 07:37:53;;;;;;;24.70;19.30;;;;;;;16.78;59.91;101384.77;117470;1180;23579;-64
2021/11/06 07:40:22;;;;;;;31.20;21.00;;;;;;;16.73;59.88;101384.87;117408;1183;24238;-70
2021/11/06 07:42:51;;;;;;;27.10;17.90;;;;;;;16.73;59.84;101389.84;117451;1180;21906;-64
2021/11/06 07:45:19;;;;;;;24.60;16.60;;;;;;;16.67;59.72;101391.02;117419;1177;21857;-70
2021/11/06 07:47:48;;;;;;;22.30;14.50;;;;;;;16.58;59.81;101396.90;117369;1183;23638;-65
2021/11/06 07:50:18;;;;;;;20.90;14.70;;;;;;;16.55;59.83;101394.84;117599;1182;23487;-69
2021/11/06 07:52:46;;;;;;;17.70;14.30;;;;;;;16.58;59.79;101393.70;117471;1186;23682;-62
2021/11/06 07:55:15;;;;;;;41.80;26.60;;;;;;;16.60;59.81;101397.90;117531;1182;23544;-70
2021/11/06 07:57:43;;;;;;;37.00;22.50;;;;;;;16.59;59.72;101397.38;117453;1182;21852;-65
2021/11/06 08:00:13;;;;;;;23.00;16.30;;;;;;;16.59;59.75;101408.55;117520;1184;23592;-64
2021/11/06 08:02:42;;;;;;;21.60;15.70;;;;;;;16.58;59.72;101413.18;117360;1182;21854;-69
2021/11/06 08:05:13;;;;;;;24.50;14.90;;;;;;;16.58;59.74;101408.59;117501;1182;21854;-68
2021/11/06 08:07:41;;;;;;;22.60;15.40;;;;;;;16.58;59.74;101414.23;117511;1182;22899;-69
2021/11/06 08:10:10;;;;;;;26.20;14.60;;;;;;;16.60;59.78;101419.52;117392;1186;22976;-69
2021/11/06 08:12:39;;;;;;;20.70;13.20;;;;;;;16.61;59.73;101423.92;117508;1183;23455;-66
2021/11/06 08:15:13;;;;;;;21.20;14.10;;;;;;;16.64;59.79;101419.80;117459;1183;24789;-64
2021/11/06 08:17:43;;;;;;;34.30;21.50;;;;;;;16.67;59.85;101426.12;117386;1179;22935;-64
2021/11/06 08:20:12;;;;;;;45.00;24.70;;;;;;;16.72;59.85;101435.41;117381;1186;21860;-68
2021/11/06 08:22:40;;;;;;;33.50;19.60;;;;;;;16.76;59.96;101438.88;117341;1185;21854;-62
2021/11/06 08:25:09;;;;;;;19.70;14.70;;;;;;;16.82;59.95;101446.54;117424;1183;21855;-63
2021/11/06 08:27:37;;;;;;;22.50;15.50;;;;;;;16.88;59.91;101454.56;117355;1185;21863;-63
2021/11/06 08:30:06;;;;;;;19.20;13.10;;;;;;;16.91;59.82;101451.48;117464;1185;22815;-64
2021/11/06 08:32:34;;;;;;;16.20;10.80;;;;;;;16.94;59.65;101456.56;119130;1182;23538;-63
2021/11/06 08:35:03;;;;;;;17.60;11.10;;;;;;;16.96;59.70;101465.05;117497;1182;22041;-67
2021/11/06 08:37:31;;;;;;;18.10;11.70;;;;;;;16.98;59.75;101472.81;117622;1183;21858;-63
2021/11/06 08:40:05;;;;;;;13.80;8.60;;;;;;;17.04;59.70;101485.10;117369;1185;23456;-66
2021/11/06 08:42:34;;;;;;;11.30;7.70;;;;;;;17.03;59.61;101488.84;117388;1182;22929;-61
2021/11/06 08:45:03;;;;;;;9.20;5.90;;;;;;;16.99;59.52;101485.20;117423;1183;21867;-61
2021/11/06 08:47:33;;;;;;;9.20;5.70;;;;;;;16.91;59.37;101485.51;117479;1186;21864;-66
2021/11/06 08:50:04;;;;;;;37.20;18.80;;;;;;;16.87;59.41;101485.96;117508;1182;22802;-61
2021/11/06 08:52:35;;;;;;;23.60;16.40;;;;;;;16.81;59.44;101491.38;117416;1183;22635;-65
2021/11/06 08:55:06;;;;;;;12.20;8.40;;;;;;;16.77;59.47;101488.47;117384;1183;21976;-61
2021/11/06 08:57:38;;;;;;;10.70;6.90;;;;;;;16.68;59.69;101484.56;117685;1182;23446;-61
2021/11/06 09:00:18;;;;;;;9.70;6.60;;;;;;;16.63;59.84;101492.10;117385;1185;24238;-66
2021/11/06 09:02:47;;;;;;;7.80;5.50;;;;;;;16.68;60.03;101493.61;117519;1182;21851;-65
2021/11/06 09:05:16;;;;;;;10.60;5.90;;;;;;;16.76;60.18;101499.12;117509;1176;21859;-60
2021/11/06 09:07:44;;;;;;;8.40;5.10;;;;;;;16.80;60.07;101512.52;117595;1182;21858;-64
2021/11/06 09:10:14;;;;;;;7.10;4.80;;;;;;;16.80;59.94;101509.84;117559;1182;23450;-64
2021/11/06 09:12:43;;;;;;;7.00;4.40;;;;;;;16.81;60.10;101512.12;117565;1185;22110;-65
2021/11/06 09:15:13;;;;;;;7.50;5.00;;;;;;;16.82;60.01;101510.52;117425;1185;21966;-60
2021/11/06 09:17:42;;;;;;;9.30;6.70;;;;;;;16.81;59.98;101503.27;117305;1182;21855;-59
2021/11/06 09:20:12;;;;;;;10.30;6.90;;;;;;;16.78;59.87;101493.95;117459;1180;21851;-59
2021/11/06 09:22:41;;;;;;;14.10;11.30;;;;;;;16.73;59.97;101493.34;117461;1182;23544;-64
2021/11/06 09:25:09;;;;;;;15.70;12.70;;;;;;;16.71;60.07;101499.22;117412;1179;21853;-64
2021/11/06 09:27:38;;;;;;;8.40;7.50;;;;;;;16.70;60.02;101501.02;117463;1185;21860;-59
2021/11/06 09:30:09;;;;;;;9.20;5.80;;;;;;;16.71;59.97;101498.70;117336;1182;22906;-63
2021/11/06 09:32:38;;;;;;;6.40;4.70;;;;;;;16.74;60.11;101497.74;117449;1182;24244;-60
2021/11/06 09:35:09;;;;;;;10.30;5.30;;;;;;;16.79;60.14;101497.98;117481;1185;23520;-67
2021/11/06 09:37:38;;;;;;;18.10;10.90;;;;;;;16.89;60.28;101499.20;117453;1183;21858;-64
2021/11/06 09:40:08;;;;;;;19.30;11.80;;;;;;;17.03;60.35;101500.36;117454;1182;23438;-64
2021/11/06 09:42:38;;;;;;;11.40;6.90;;;;;;;17.10;60.18;101501.64;117372;1185;21857;-64
2021/11/06 09:45:08;;;;;;;;;;;;;;;17.12;59.98;101490.09;117452;1185;21851;-60
2021/11/06 09:47:36;;;;;;;9.00;4.50;;;;;;;17.09;60.14;101488.02;117496;1182;23465;-63
2021/11/06 09:50:07;;;;;;;5.90;4.20;;;;;;;17.10;60.19;101488.70;117433;1182;21861;-59
2021/11/06 09:52:38;;;;;;;6.70;4.70;;;;;;;17.16;60.27;101479.16;117534;1176;21855;-59
2021/11/06 09:55:07;;;;;;;6.60;4.60;;;;;;;17.21;60.38;101479.95;117432;1182;22708;-59
2021/11/06 09:57:35;;;;;;;10.20;4.70;;;;;;;17.30;60.48;101484.34;117512;1184;23819;-63
2021/11/06 10:00:06;;;;;;;7.40;4.10;;;;;;;17.40;60.35;101488.04;117593;1183;23525;-64
2021/11/06 10:02:34;;;;;;;6.50;3.90;;;;;;;17.45;60.25;101488.80;117503;1185;21860;-63
2021/11/06 10:05:09;;;;;;;5.50;3.50;;;;;;;17.47;60.32;101495.14;117418;1186;23459;-63
2021/11/06 10:07:39;;;;;;;5.10;3.90;;;;;;;17.47;60.28;101505.95;117536;1183;22489;-63
2021/11/06 10:10:15;;;;;;;7.20;4.10;;;;;;;17.48;60.36;101507.17;117410;1183;21843;-59
2021/11/06 10:12:57;;;;;;;7.10;3.80;;;;;;;17.49;60.32;101506.44;117396;1186;21864;-59
2021/11/06 10:15:26;;;;;;;5.70;3.80;;;;;;;17.53;60.33;101509.38;117561;1182;23438;-60
2021/11/06 10:17:54;;;;;;;5.60;3.80;;;;;;;17.59;60.36;101510.84;117508;1183;22913;-60
2021/11/06 10:20:29;;;;;;;5.40;3.60;;;;;;;17.65;60.43;101505.20;117546;1183;21858;-59
2021/11/06 10:23:00;;;;;;;5.20;3.20;;;;;;;17.68;60.44;101499.24;117460;1179;23529;-63
2021/11/06 10:25:34;;;;;;;5.40;3.40;;;;;;;17.70;60.34;101496.00;117472;1182;21940;-62
2021/11/06 10:28:05;;;;;;;4.80;3.30;;;;;;;17.73;60.42;101491.86;117524;1182;22628;-59
2021/11/06 10:30:44;;;;;;;4.30;3.10;;;;;;;17.77;60.34;101495.66;117584;1185;23439;-63
2021/11/06 10:33:15;;;;;;;5.70;3.80;;;;;;;17.82;60.38;101497.16;117515;1186;21880;-58
2021/11/06 10:35:44;;;;;;;6.40;3.60;;;;;;;17.86;60.38;101496.52;117494;1181;23522;-63
2021/11/06 10:38:17;;;;;;;5.00;3.00;;;;;;;17.91;60.45;101489.10;117487;1182;22932;-59
2021/11/06 10:40:55;;;;;;;8.30;4.10;;;;;;;18.01;60.53;101494.93;117519;1182;22905;-63
2021/11/06 10:43:24;;;;;;;5.20;3.90;;;;;;;18.08;60.43;101492.10;117450;1183;22918;-59
2021/11/06 10:45:55;;;;;;;5.70;3.30;;;;;;;18.10;60.43;101485.11;117459;1183;23699;-63
2021/11/06 10:48:35;;;;;;;5.50;3.70;;;;;;;18.15;60.33;101477.70;117524;1184;23758;-64
2021/11/06 10:51:11;;;;;;;7.20;4.00;;;;;;;18.18;60.38;101461.27;117440;1185;23435;-59
2021/11/06 10:53:46;;;;;;;8.90;3.90;;;;;;;18.17;60.28;101454.20;117409;1183;22827;-62
2021/11/06 10:56:14;;;;;;;5.20;3.70;;;;;;;18.17;60.30;101453.67;117510;1186;21860;-59
2021/11/06 10:58:45;;;;;;;5.40;3.80;;;;;;;18.23;60.51;101453.85;117496;1182;24601;-57
2021/11/06 11:01:21;;;;;;;4.90;3.40;;;;;;;18.40;60.70;101455.89;117407;1185;22986;-59
2021/11/06 11:03:50;;;;;;;4.80;3.30;;;;;;;18.63;60.76;101456.46;117372;1182;21861;-64
2021/11/06 11:06:22;;;;;;;4.90;2.90;;;;;;;18.74;60.61;101465.05;117352;1185;24159;-63
2021/11/06 11:08:54;;;;;;;4.70;3.00;;;;;;;18.81;60.56;101455.97;117425;1184;21854;-63
2021/11/06 11:11:24;;;;;;;5.50;4.00;;;;;;;18.87;60.50;101458.98;117461;1184;22621;-63
2021/11/06 11:14:02;;;;;;;6.20;3.20;;;;;;;18.98;60.62;101453.88;117529;1182;23465;-63